Coal City, Indiana
Current Conditions -  °F | °C
As of 4:53 AM on Thursday 27 Nov 2014 (Local Time) from KHUF Reporting Station
Clear Clear  
Wind Chill: 19°   Ceiling: Unl
Heat Index: 27°   Visibility: 10mi
Dew Point: 20°   Wind: 7mph
Humidity: 75%   Direction: 330°NNW
Pressure: 30.24"   Gusts: NA
Location:  39.23°N, 87.05°W
Report Text: KHUF 270953Z AUTO 33006KT 10SM CLR M03/M07 A3024 RMK AO2 SLP245 T10281067
Loading
Personal Weather Stations






























Interactive Weather Map New forecast layout! Learn more

10-Day Weather Forecast

Advertisements
Track Severe Weather on mobile